Johnstown, Ohio
Current Conditions -  °F | °C
As of 4:51 AM on Sunday 26 Oct 2014 (Local Time) from KCMH Reporting Station
Clear Clear  
Wind Chill: 43°   Ceiling: Unl
Heat Index: 46°   Visibility: 10mi
Dew Point: 35°   Wind: 6mph
Humidity: 66%   Direction: 300°WNW
Pressure: 29.91"   Gusts: NA
Location:  40.15°N, 82.69°W
Report Text: KCMH 260851Z 30005KT 10SM CLR 08/02 A2991 RMK AO2 SLP126 T00780017 53008
Loading
Personal Weather Stations






























Interactive Weather Map New forecast layout! Learn more

10-Day Weather Forecast

Advertisements
Track Severe Weather on mobile